Time;durP1;ratioP1;P1;durP2;ratioP2;P2;SDS_P1;SDS_P2;PMS_P1;PMS_P2;Temp;Humidity;BMP_temperature;BMP_pressure;BME280_temperature;BME280_humidity;BME280_pressure;Samples;Min_cycle;Max_cycle;Signal;HPM_P1;HPM_P2
2022/12/28 00:01:53;;;;;;;0.90;0.90;;;;;;;0.84;69.47;100514.56;4304106;33;32815;-79
2022/12/28 00:04:21;;;;;;;0.80;0.80;;;;;;;0.99;68.10;100508.37;4290968;33;34025;-72
2022/12/28 00:06:49;;;;;;;0.80;0.80;;;;;;;0.54;69.13;100509.72;4303986;33;36005;-78
2022/12/28 00:09:17;;;;;;;0.80;0.80;;;;;;;0.83;68.24;100502.56;4290876;33;35180;-70
2022/12/28 00:11:45;;;;;;;1.65;1.55;;;;;;;0.51;68.37;100506.13;4302781;33;32969;-79
2022/12/28 00:14:13;;;;;;;0.80;0.80;;;;;;;0.18;69.96;100504.56;4302800;33;34793;-78
2022/12/28 00:16:42;;;;;;;0.80;0.80;;;;;;;0.01;70.82;100510.53;4303709;33;34580;-69
2022/12/28 00:19:13;;;;;;;1.20;1.20;;;;;;;-0.15;71.59;100505.44;4303833;33;34420;-74
2022/12/28 00:21:42;;;;;;;1.10;1.10;;;;;;;-0.13;73.39;100507.25;4303758;33;32715;-78
2022/12/28 00:24:17;;;;;;;0.80;0.80;;;;;;;0.52;71.37;100511.34;4278821;33;32749;-68
2022/12/28 00:26:45;;;;;;;0.85;0.85;;;;;;;0.30;71.76;100513.66;4290714;33;35896;-68
2022/12/28 00:29:14;;;;;;;1.80;1.70;;;;;;;-0.05;73.06;100510.22;4303662;33;35093;-68
2022/12/28 00:31:44;;;;;;;0.80;0.80;;;;;;;0.46;70.65;100505.03;4290687;33;33310;-68
2022/12/28 00:34:13;;;;;;;0.85;0.85;;;;;;;0.32;71.61;100501.81;4303603;33;33132;-68
2022/12/28 00:36:41;;;;;;;0.70;0.70;;;;;;;0.50;69.91;100500.12;4290528;33;35006;-68
2022/12/28 00:39:29;;;;;;;0.90;0.90;;;;;;;0.50;69.02;100507.81;4303626;33;34292;-69
2022/12/28 00:41:58;;;;;;;0.80;0.80;;;;;;;0.26;72.77;100516.88;4303490;33;34234;-68
2022/12/28 00:44:27;;;;;;;0.90;0.90;;;;;;;0.32;73.49;100512.06;4303480;33;33788;-69
2022/12/28 00:46:55;;;;;;;0.80;0.80;;;;;;;0.38;73.42;100507.22;4303359;33;35976;-68
2022/12/28 00:49:23;;;;;;;1.10;1.08;;;;;;;0.51;72.60;100508.69;4303276;33;35220;-69
2022/12/28 00:51:52;;;;;;;0.80;0.80;;;;;;;0.23;72.17;100509.03;4303425;33;33495;-68
2022/12/28 00:54:22;;;;;;;0.70;0.70;;;;;;;0.09;74.14;100516.91;4303353;33;33903;-78
2022/12/28 00:56:50;;;;;;;1.05;1.05;;;;;;;0.80;75.09;100517.78;4303235;33;35055;-68
2022/12/28 00:59:18;;;;;;;0.70;0.70;;;;;;;1.14;74.47;100519.38;4303368;33;34531;-68
2022/12/28 01:01:46;;;;;;;0.70;0.70;;;;;;;1.61;73.50;100517.22;4305538;33;34392;-69
2022/12/28 01:04:15;;;;;;;3.08;2.87;;;;;;;1.48;73.51;100523.47;4305580;33;34824;-69
2022/12/28 01:06:43;;;;;;;0.80;0.80;;;;;;;1.31;72.50;100528.72;4305422;33;34916;-69
2022/12/28 01:09:10;;;;;;;0.80;0.80;;;;;;;1.25;72.10;100533.59;4292383;33;34489;-68
2022/12/28 01:11:39;;;;;;;1.10;1.10;;;;;;;1.82;70.39;100533.56;4305399;33;34342;-69
2022/12/28 01:14:07;;;;;;;1.50;1.40;;;;;;;1.66;70.71;100532.00;4305488;33;33969;-69
2022/12/28 01:16:35;;;;;;;0.80;0.80;;;;;;;1.68;70.10;100530.38;4305383;33;34957;-75
2022/12/28 01:19:05;;;;;;;1.10;1.10;;;;;;;1.74;69.72;100528.87;4305395;33;34301;-69
2022/12/28 01:21:35;;;;;;;1.15;1.12;;;;;;;1.83;69.51;100527.59;4305471;33;34073;-68
2022/12/28 01:24:04;;;;;;;0.70;0.70;;;;;;;1.57;70.43;100535.81;4305361;33;34704;-74
2022/12/28 01:26:33;;;;;;;3.20;3.00;;;;;;;1.31;71.11;100536.41;4292467;33;35956;-68
2022/12/28 01:29:01;;;;;;;0.80;0.80;;;;;;;1.63;69.57;100539.56;4305061;33;35129;-75
2022/12/28 01:31:31;;;;;;;3.40;3.20;;;;;;;1.59;69.67;100540.25;4305311;33;34262;-69
2022/12/28 01:34:01;;;;;;;1.23;1.23;;;;;;;1.62;69.77;100545.50;4305547;33;33906;-69
2022/12/28 01:36:31;;;;;;;0.77;0.77;;;;;;;1.41;69.74;100547.09;4304146;33;34990;-69
2022/12/28 01:39:02;;;;;;;0.70;0.70;;;;;;;1.46;69.48;100537.91;4305141;33;34425;-68
2022/12/28 01:41:35;;;;;;;1.00;1.00;;;;;;;0.45;72.61;100540.03;4292793;33;34371;-77
2022/12/28 01:44:03;;;;;;;0.70;0.70;;;;;;;0.77;72.18;100538.16;4304133;33;33917;-77
2022/12/28 01:46:48;;;;;;;3.08;2.58;;;;;;;0.86;71.76;100538.59;4304980;33;35063;-68
2022/12/28 01:49:22;;;;;;;0.73;0.73;;;;;;;0.88;71.89;100539.56;4292205;33;34435;-73
2022/12/28 01:52:12;;;;;;;2.22;2.03;;;;;;;1.12;70.81;100532.13;4305287;33;34244;-68
2022/12/28 01:54:50;;;;;;;0.90;0.90;;;;;;;2.15;66.12;100522.06;4305249;33;34748;-68
2022/12/28 01:57:21;;;;;;;1.60;1.50;;;;;;;2.06;65.02;100526.00;4292224;33;35272;-68
2022/12/28 01:59:53;;;;;;;1.55;1.48;;;;;;;1.98;64.41;100517.09;4305512;33;34454;-68
2022/12/28 02:02:22;;;;;;;1.50;1.00;;;;;;;1.13;67.34;100512.50;4303949;33;33443;-68
2022/12/28 02:04:52;;;;;;;1.00;1.00;;;;;;;1.24;67.05;100510.41;4292409;33;33178;-69
2022/12/28 02:07:46;;;;;;;0.80;0.80;;;;;;;1.12;66.45;100505.59;4292746;33;35249;-69
2022/12/28 02:10:16;;;;;;;0.70;0.70;;;;;;;0.87;67.77;100507.03;4280098;33;33635;-76
2022/12/28 02:13:04;;;;;;;0.90;0.90;;;;;;;1.20;66.43;100501.72;4294464;33;33462;-74
2022/12/28 02:15:32;;;;;;;0.90;0.90;;;;;;;0.77;68.26;100506.53;4305057;33;34805;-69
2022/12/28 02:18:01;;;;;;;1.10;1.10;;;;;;;0.67;69.27;100502.63;4304995;33;35762;-77
2022/12/28 02:20:42;;;;;;;0.90;0.90;;;;;;;0.56;69.45;100504.69;4291992;33;35062;-68
2022/12/28 02:23:23;;;;;;;1.35;1.25;;;;;;;0.37;70.35;100495.22;4304995;33;34226;-74
2022/12/28 02:26:27;;;;;;;0.80;0.80;;;;;;;-0.01;70.11;100499.34;4292039;33;34551;-68
2022/12/28 02:29:24;;;;;;;1.10;1.10;;;;;;;-0.12;71.39;100497.91;4296388;33;35143;-77
2022/12/28 02:32:11;;;;;;;1.25;1.25;;;;;;;0.20;69.51;100498.66;4300427;33;34454;-78
2022/12/28 02:34:45;;;;;;;0.80;0.80;;;;;;;-0.45;73.10;100508.16;4305357;33;33359;-72
2022/12/28 02:37:28;;;;;;;0.80;0.80;;;;;;;-0.63;76.74;100503.84;4304978;33;33686;-68
2022/12/28 02:40:02;;;;;;;0.80;0.80;;;;;;;-0.38;76.56;100502.56;4291968;33;35119;-68
2022/12/28 02:42:30;;;;;;;0.80;0.80;;;;;;;0.51;71.75;100501.91;4291999;33;34408;-68
2022/12/28 02:50:44;;;;;;;0.80;0.80;;;;;;;-0.06;71.23;100500.78;4304001;33;35922;-77
2022/12/28 02:53:24;;;;;;;0.80;0.80;;;;;;;-0.01;71.33;100502.75;4303671;33;35019;-69
2022/12/28 02:56:41;;;;;;;1.75;1.65;;;;;;;0.22;69.37;100502.16;4304942;33;34315;-69
2022/12/28 02:59:26;;;;;;;0.70;0.70;;;;;;;-0.28;71.52;100502.25;4298240;33;33838;-78
2022/12/28 03:02:31;;;;;;;0.80;0.80;;;;;;;0.17;70.57;100497.66;4291989;33;35044;-69
2022/12/28 03:08:36;;;;;;;1.15;1.15;;;;;;;0.29;72.05;100509.34;4304705;33;33390;-69
2022/12/28 03:11:09;;;;;;;0.80;0.80;;;;;;;0.16;71.74;100495.06;4303880;33;33931;-68
2022/12/28 03:13:51;;;;;;;0.80;0.80;;;;;;;0.02;70.98;100496.94;4303745;33;35083;-68
2022/12/28 03:16:19;;;;;;;;;;;;;;;-0.80;74.06;100496.94;4292271;33;34600;-71
2022/12/28 03:33:09;;;;;;;0.90;0.90;;;;;;;-0.46;72.49;100478.25;4303506;33;34794;-69
2022/12/28 03:36:19;;;;;;;1.00;1.00;;;;;;;-0.67;73.93;100480.56;4304658;33;35039;-76
2022/12/28 03:39:20;;;;;;;0.80;0.80;;;;;;;-0.37;72.70;100465.06;4248676;33;33222;-78
2022/12/28 03:44:52;;;;;;;0.90;0.90;;;;;;;-0.51;75.64;100462.69;4293608;33;34650;-69
2022/12/28 03:47:24;;;;;;;0.93;0.93;;;;;;;-0.29;73.89;100456.97;4303263;33;34960;-77
2022/12/28 03:49:52;;;;;;;1.75;1.65;;;;;;;-0.65;73.83;100458.53;4303357;33;34313;-69
2022/12/28 03:52:20;;;;;;;1.80;1.70;;;;;;;-0.32;72.82;100461.06;4303275;33;33277;-68
2022/12/28 03:54:48;;;;;;;0.80;0.80;;;;;;;-0.47;73.63;100456.91;4304385;33;34019;-69
2022/12/28 03:57:18;;;;;;;4.20;4.00;;;;;;;-0.61;74.30;100455.31;4304279;33;35070;-77
2022/12/28 03:59:47;;;;;;;1.05;1.05;;;;;;;-0.64;74.94;100450.91;4304397;33;34485;-78
2022/12/28 04:02:16;;;;;;;1.08;1.08;;;;;;;-0.71;76.04;100441.16;4304276;33;33449;-77
2022/12/28 04:04:44;;;;;;;0.90;0.90;;;;;;;-0.70;75.07;100447.19;4298459;33;33574;-78
2022/12/28 04:07:12;;;;;;;1.48;1.27;;;;;;;-1.38;78.04;100441.91;4304110;33;35036;-68
2022/12/28 04:09:40;;;;;;;0.80;0.80;;;;;;;-1.54;78.80;100439.28;4303903;33;34515;-70
2022/12/28 04:12:11;;;;;;;2.17;2.08;;;;;;;-1.35;78.70;100436.94;4304194;33;33452;-69
2022/12/28 04:14:40;;;;;;;0.80;0.80;;;;;;;-2.03;83.19;100431.41;4304201;33;33976;-68
2022/12/28 04:17:08;;;;;;;0.90;0.90;;;;;;;-1.33;81.81;100427.66;4303037;33;35175;-69
2022/12/28 04:19:36;;;;;;;0.80;0.80;;;;;;;-0.81;79.04;100432.16;4304139;33;34267;-70
2022/12/28 04:22:04;;;;;;;0.80;0.80;;;;;;;-0.35;76.68;100422.50;4303853;33;33452;-68
2022/12/28 04:24:34;;;;;;;0.82;0.82;;;;;;;-0.90;81.44;100420.53;4304020;33;33976;-69
2022/12/28 04:27:02;;;;;;;0.88;0.88;;;;;;;-0.63;77.97;100413.44;4303687;33;35802;-69
2022/12/28 04:29:31;;;;;;;0.95;0.95;;;;;;;-1.03;80.37;100417.34;4303906;33;34438;-70
2022/12/28 04:31:59;;;;;;;0.80;0.80;;;;;;;-0.39;77.87;100412.12;4302396;33;33612;-69
2022/12/28 04:34:27;;;;;;;0.80;0.80;;;;;;;-0.39;77.64;100412.12;4290588;33;34123;-72
2022/12/28 04:36:56;;;;;;;0.82;0.82;;;;;;;-0.39;76.69;100412.12;4304491;33;35417;-70
2022/12/28 04:39:24;;;;;;;0.80;0.80;;;;;;;-0.34;76.16;100403.81;4305566;33;34051;-68
2022/12/28 04:41:52;;;;;;;0.80;0.80;;;;;;;-0.75;79.01;100402.59;4305708;33;33616;-69
2022/12/28 04:44:20;;;;;;;0.80;0.80;;;;;;;-0.19;76.05;100399.44;4305556;33;34014;-69
2022/12/28 04:46:48;;;;;;;0.80;0.80;;;;;;;-0.38;76.21;100413.00;4305461;33;35169;-69
2022/12/28 04:49:16;;;;;;;0.88;0.88;;;;;;;-1.05;79.48;100416.37;4305507;33;34495;-76
2022/12/28 04:51:44;;;;;;;0.85;0.85;;;;;;;-1.45;81.65;100415.91;4305380;33;34227;-69
2022/12/28 04:54:13;;;;;;;1.20;1.17;;;;;;;-1.07;80.52;100419.66;4305464;33;33913;-69
2022/12/28 04:56:41;;;;;;;0.82;0.82;;;;;;;-0.94;78.78;100424.63;4305443;33;35047;-69
2022/12/28 04:59:09;;;;;;;0.80;0.80;;;;;;;-0.99;79.65;100421.84;4305482;33;34593;-69
2022/12/28 05:01:37;;;;;;;0.80;0.80;;;;;;;-0.76;78.96;100422.12;4305519;33;34348;-69
2022/12/28 05:04:06;;;;;;;0.90;0.90;;;;;;;-0.61;78.82;100425.50;4305576;33;33974;-77
2022/12/28 05:06:34;;;;;;;0.90;0.90;;;;;;;-0.21;77.96;100427.53;4305321;33;35761;-69
2022/12/28 05:09:02;;;;;;;0.80;0.80;;;;;;;-0.44;77.33;100426.38;4305445;33;34299;-75
2022/12/28 05:11:30;;;;;;;0.80;0.80;;;;;;;-0.67;78.77;100429.41;4304176;33;33453;-76
2022/12/28 05:13:58;;;;;;;0.80;0.80;;;;;;;-0.43;78.97;100423.00;4305364;33;33796;-76
2022/12/28 05:16:27;;;;;;;1.25;1.23;;;;;;;-0.39;78.97;100424.03;4305368;33;35882;-76
2022/12/28 05:18:56;;;;;;;0.80;0.80;;;;;;;-0.33;78.49;100421.78;4292592;33;34281;-76
2022/12/28 05:21:26;;;;;;;0.70;0.70;;;;;;;-0.34;77.48;100429.38;4292394;33;33474;-77
2022/12/28 05:23:55;;;;;;;0.70;0.70;;;;;;;-0.35;76.75;100422.50;4305348;33;34833;-69
2022/12/28 05:26:25;;;;;;;0.80;0.80;;;;;;;-0.37;77.08;100427.56;4305367;33;35025;-69
2022/12/28 05:28:54;;;;;;;0.80;0.80;;;;;;;-0.54;78.32;100431.81;4292359;33;34502;-75
2022/12/28 05:31:23;;;;;;;0.95;0.95;;;;;;;-0.09;76.70;100423.81;4292193;33;33344;-75
2022/12/28 05:33:52;;;;;;;0.70;0.70;;;;;;;-0.26;77.44;100423.84;4292050;33;32344;-76
2022/12/28 05:36:22;;;;;;;0.80;0.80;;;;;;;-0.42;77.59;100429.00;4305342;33;35169;-76
2022/12/28 05:38:52;;;;;;;0.70;0.70;;;;;;;-0.63;77.84;100422.00;4304128;33;34276;-69
2022/12/28 05:41:22;;;;;;;0.80;0.80;;;;;;;-0.26;76.65;100416.19;4292295;33;33858;-68
2022/12/28 05:43:51;;;;;;;0.80;0.80;;;;;;;-0.30;75.64;100416.84;4292251;33;34083;-68
2022/12/28 05:46:31;;;;;;;0.98;0.98;;;;;;;0.00;75.96;100424.28;4304634;33;35184;-68
2022/12/28 05:49:00;;;;;;;0.70;0.70;;;;;;;0.68;72.39;100424.94;4292296;33;35201;-69
2022/12/28 05:51:30;;;;;;;0.70;0.70;;;;;;;0.48;71.29;100432.56;4305101;33;33651;-69
2022/12/28 05:53:59;;;;;;;0.95;0.95;;;;;;;0.44;70.10;100428.13;4292161;33;33441;-69
2022/12/28 05:56:29;;;;;;;0.90;0.90;;;;;;;-0.84;76.18;100423.44;4305081;33;35033;-69
2022/12/28 05:59:04;;;;;;;4.55;4.32;;;;;;;-1.08;78.85;100430.69;4305125;33;34309;-68
2022/12/28 06:01:37;;;;;;;0.80;0.80;;;;;;;-0.47;76.37;100433.00;4292167;33;34292;-68
2022/12/28 06:04:09;;;;;;;0.90;0.90;;;;;;;-0.98;75.89;100433.81;4292184;33;34160;-76
2022/12/28 06:06:37;;;;;;;2.67;2.47;;;;;;;-0.31;73.16;100435.53;4304026;33;35057;-69
2022/12/28 06:09:06;;;;;;;0.80;0.80;;;;;;;-0.63;73.82;100432.22;4280291;33;34408;-76
2022/12/28 06:11:34;;;;;;;0.80;0.80;;;;;;;-0.51;73.82;100433.63;4304950;33;33485;-68
2022/12/28 06:14:04;;;;;;;1.00;1.00;;;;;;;-1.09;78.29;100432.38;4303904;33;34561;-69
2022/12/28 06:16:38;;;;;;;0.80;0.80;;;;;;;-0.65;77.33;100428.72;4303926;33;35945;-69
2022/12/28 06:19:08;;;;;;;0.80;0.80;;;;;;;-0.25;73.83;100425.62;4292181;33;34456;-72
2022/12/28 06:21:38;;;;;;;0.80;0.80;;;;;;;-0.01;71.11;100425.94;4303913;33;32523;-70
2022/12/28 06:24:07;;;;;;;0.80;0.80;;;;;;;0.01;69.77;100428.59;4305052;33;33920;-76
2022/12/28 06:26:37;;;;;;;0.80;0.80;;;;;;;-0.77;74.14;100443.41;4304832;33;35153;-76
2022/12/28 06:29:05;;;;;;;0.88;0.88;;;;;;;-0.27;73.46;100424.66;4304934;33;35274;-76
2022/12/28 06:31:38;;;;;;;0.80;0.80;;;;;;;-0.33;71.90;100426.03;4291907;33;33407;-70
2022/12/28 06:34:08;;;;;;;0.80;0.80;;;;;;;-0.39;72.07;100429.16;4304974;33;33956;-76
2022/12/28 06:36:42;;;;;;;0.90;0.90;;;;;;;-0.55;71.82;100427.47;4304959;33;35098;-76
2022/12/28 06:39:12;;;;;;;0.80;0.80;;;;;;;-1.28;73.49;100437.28;4291995;33;34507;-69
2022/12/28 06:41:41;;;;;;;0.90;0.90;;;;;;;-1.12;74.01;100442.41;4303813;33;33599;-69
2022/12/28 06:44:11;;;;;;;1.40;1.25;;;;;;;-0.74;72.88;100437.56;4304761;33;33814;-69
2022/12/28 06:46:39;;;;;;;0.80;0.80;;;;;;;-0.89;74.71;100435.97;4291671;33;34327;-68
2022/12/28 06:49:08;;;;;;;1.00;1.00;;;;;;;-0.73;75.76;100439.34;4304765;33;34432;-68
2022/12/28 06:51:39;;;;;;;0.80;0.80;;;;;;;-0.51;75.14;100441.31;4304750;33;34087;-75
2022/12/28 06:54:08;;;;;;;1.00;1.00;;;;;;;-0.78;78.54;100441.66;4292114;33;34776;-76
2022/12/28 06:56:36;;;;;;;2.10;1.90;;;;;;;-1.06;78.54;100455.53;4304594;33;35119;-75
2022/12/28 06:59:05;;;;;;;0.80;0.80;;;;;;;-2.05;81.05;100448.31;4303980;33;35225;-68
2022/12/28 07:01:38;;;;;;;0.80;0.80;;;;;;;-1.29;79.05;100451.72;4304700;33;34225;-68
2022/12/28 07:04:08;;;;;;;1.42;1.42;;;;;;;-1.22;77.82;100447.81;4291800;33;33904;-76
2022/12/28 07:06:41;;;;;;;0.80;0.80;;;;;;;-0.89;76.89;100447.88;4304624;33;35950;-69
2022/12/28 07:09:12;;;;;;;0.90;0.90;;;;;;;0.01;73.96;100428.59;4291624;33;35273;-68
2022/12/28 07:11:41;;;;;;;0.80;0.80;;;;;;;0.43;75.58;100444.28;4303630;33;33431;-69
2022/12/28 07:14:10;;;;;;;0.80;0.80;;;;;;;0.49;76.64;100443.69;4304959;33;34685;-69
2022/12/28 07:16:38;;;;;;;0.80;0.80;;;;;;;1.27;72.38;100434.47;4304529;33;35128;-69
2022/12/28 07:19:05;;;;;;;0.80;0.80;;;;;;;1.41;70.18;100437.63;4304536;33;35250;-74
2022/12/28 07:21:35;;;;;;;0.80;0.80;;;;;;;1.36;70.46;100433.09;4304644;33;33511;-68
2022/12/28 07:24:04;;;;;;;1.85;1.75;;;;;;;1.69;69.19;100437.16;4304899;33;34430;-68
2022/12/28 07:26:34;;;;;;;0.82;0.82;;;;;;;1.72;69.01;100430.37;4304343;33;35014;-68
2022/12/28 07:29:04;;;;;;;1.05;1.00;;;;;;;1.87;68.41;100429.34;4303311;33;34542;-68
2022/12/28 07:31:34;;;;;;;1.00;1.00;;;;;;;1.48;69.92;100419.13;4304458;33;33499;-68
2022/12/28 07:34:11;;;;;;;1.67;1.12;;;;;;;1.64;70.61;100423.22;4292328;33;33503;-68
2022/12/28 07:36:39;;;;;;;1.33;1.23;;;;;;;1.72;69.78;100425.25;4304411;33;35912;-69
2022/12/28 07:39:07;;;;;;;1.33;1.23;;;;;;;1.93;71.22;100423.56;4304242;33;34535;-69
2022/12/28 07:41:36;;;;;;;0.85;0.85;;;;;;;2.22;71.43;100426.44;4304411;33;33438;-69
2022/12/28 07:44:05;;;;;;;0.90;0.90;;;;;;;2.65;70.43;100428.16;4291346;33;33922;-68
2022/12/28 07:46:34;;;;;;;0.80;0.80;;;;;;;2.05;70.76;100424.06;4304050;33;34994;-69
2022/12/28 07:49:03;;;;;;;1.92;1.83;;;;;;;1.82;72.24;100424.81;4304243;33;33657;-69
2022/12/28 07:51:34;;;;;;;0.85;0.85;;;;;;;3.07;70.35;100430.59;4304171;33;33477;-77
2022/12/28 07:54:02;;;;;;;1.23;1.23;;;;;;;2.88;68.79;100431.59;4291201;33;33056;-75
2022/12/28 07:56:32;;;;;;;1.85;1.70;;;;;;;3.42;67.49;100433.56;4304329;33;35969;-77
2022/12/28 07:59:03;;;;;;;0.95;0.95;;;;;;;4.55;65.50;100438.16;4290884;33;33304;-76
2022/12/28 08:01:34;;;;;;;0.95;0.93;;;;;;;5.20;62.75;100434.94;4291209;33;33399;-77
2022/12/28 08:04:05;;;;;;;2.00;1.85;;;;;;;4.33;63.76;100446.94;4304042;33;33081;-77
2022/12/28 08:06:35;;;;;;;1.00;1.00;;;;;;;4.29;62.81;100448.56;4302933;33;34183;-76
2022/12/28 08:09:04;;;;;;;1.15;1.15;;;;;;;4.68;62.07;100449.78;4303579;33;33701;-76
2022/12/28 08:11:35;;;;;;;1.33;1.33;;;;;;;5.98;59.13;100438.78;4305696;33;33365;-77
2022/12/28 08:14:04;;;;;;;0.80;0.80;;;;;;;6.63;56.53;100439.50;4305822;33;34044;-77
2022/12/28 08:16:35;;;;;;;2.47;1.23;;;;;;;7.03;56.13;100435.22;4304456;33;35023;-75
2022/12/28 08:19:04;;;;;;;1.92;1.80;;;;;;;7.35;55.67;100428.97;4305801;33;34537;-77
2022/12/28 08:21:37;;;;;;;0.77;0.77;;;;;;;7.06;55.25;100426.66;4304639;33;33194;-77
2022/12/28 08:24:06;;;;;;;1.02;1.02;;;;;;;7.22;55.73;100427.84;4305747;33;34121;-77
2022/12/28 08:26:36;;;;;;;0.93;0.93;;;;;;;7.91;54.18;100425.69;4292510;33;35045;-76
2022/12/28 08:29:13;;;;;;;2.05;1.90;;;;;;;7.57;55.27;100425.06;4305797;33;34131;-78
2022/12/28 08:31:42;;;;;;;;;;;;;;;7.05;56.11;100414.53;4306018;33;34399;-77
2022/12/28 08:34:14;;;;;;;3.95;3.10;;;;;;;7.14;56.86;100417.31;4305754;33;34364;-75
2022/12/28 08:36:42;;;;;;;1.75;1.37;;;;;;;7.77;54.83;100415.06;4292581;33;35717;-74
2022/12/28 08:39:10;;;;;;;0.60;0.60;;;;;;;8.24;54.17;100414.13;4305762;33;34449;-76
2022/12/28 08:41:38;;;;;;;1.60;1.50;;;;;;;8.53;53.63;100422.41;4304520;33;33442;-77
2022/12/28 08:44:06;;;;;;;0.60;0.60;;;;;;;8.56;54.02;100422.44;4305584;33;34787;-74
2022/12/28 08:46:35;;;;;;;0.50;0.50;;;;;;;8.42;53.81;100430.03;4305395;33;35933;-75
2022/12/28 08:49:04;;;;;;;3.92;1.67;;;;;;;8.41;53.49;100433.41;4305562;33;35433;-75
2022/12/28 08:51:40;;;;;;;0.55;0.55;;;;;;;9.43;51.70;100425.31;4305650;33;33862;-76
2022/12/28 08:54:10;;;;;;;0.50;0.50;;;;;;;10.81;48.47;100420.44;4305439;33;33967;-74
2022/12/28 08:56:41;;;;;;;0.82;0.82;;;;;;;11.84;45.30;100426.87;4292587;33;35455;-76
2022/12/28 08:59:15;;;;;;;1.37;1.30;;;;;;;12.39;45.33;100433.91;4292609;33;34582;-76
2022/12/28 09:01:44;;;;;;;2.62;2.42;;;;;;;12.97;43.51;100425.97;4292610;33;33437;-74
2022/12/28 09:04:18;;;;;;;1.98;1.87;;;;;;;13.56;42.66;100428.38;4305502;33;33775;-77
2022/12/28 09:06:46;;;;;;;2.90;2.37;;;;;;;11.77;43.99;100426.03;4305497;33;35031;-76
2022/12/28 09:09:16;;;;;;;0.82;0.82;;;;;;;11.20;44.63;100428.44;4304374;33;34241;-72
2022/12/28 09:11:45;;;;;;;0.77;0.77;;;;;;;10.99;47.27;100430.09;4305476;33;33560;-76
2022/12/28 09:14:13;;;;;;;1.35;1.25;;;;;;;9.00;52.19;100431.69;4305421;33;33916;-75
2022/12/28 09:16:52;;;;;;;1.80;1.67;;;;;;;11.15;43.23;100412.78;4305339;33;35226;-76
2022/12/28 09:19:20;;;;;;;6.22;3.28;;;;;;;11.04;42.91;100406.66;4292376;33;34722;-74
2022/12/28 09:21:51;;;;;;;1.87;1.77;;;;;;;11.07;42.53;100393.63;4304811;33;33449;-75
2022/12/28 09:24:21;;;;;;;1.40;0.98;;;;;;;10.54;43.96;100394.25;4305354;33;34017;-71
2022/12/28 09:26:51;;;;;;;0.82;0.82;;;;;;;9.46;46.34;100388.94;4305339;33;35041;-76
2022/12/28 09:29:20;;;;;;;1.40;1.30;;;;;;;9.90;44.84;100389.34;4292402;33;34267;-76
2022/12/28 09:31:48;;;;;;;1.23;1.20;;;;;;;9.79;43.55;100386.66;4305251;33;33463;-75
2022/12/28 09:34:16;;;;;;;3.05;2.65;;;;;;;9.90;43.86;100385.03;4305277;33;34005;-74
2022/12/28 09:37:06;;;;;;;7.22;3.25;;;;;;;9.80;44.82;100380.63;4291863;33;34959;-76
2022/12/28 09:39:34;;;;;;;1.35;1.20;;;;;;;8.44;47.57;100381.59;4292391;33;35217;-75
2022/12/28 09:42:16;;;;;;;5.78;2.33;;;;;;;8.20;47.96;100383.78;4291973;33;31682;-75
2022/12/28 09:44:59;;;;;;;2.70;2.42;;;;;;;8.21;49.19;100395.94;4298579;33;34102;-76
2022/12/28 09:47:39;;;;;;;1.50;1.45;;;;;;;8.41;49.50;100384.09;4304938;33;35024;-75
2022/12/28 09:50:08;;;;;;;1.45;1.35;;;;;;;8.71;46.85;100381.09;4292419;33;33822;-76
2022/12/28 09:52:45;;;;;;;2.12;1.92;;;;;;;10.58;44.20;100376.00;4305149;33;34221;-74
2022/12/28 09:55:17;;;;;;;1.12;1.10;;;;;;;12.07;42.82;100369.50;4292556;33;34807;-76
2022/12/28 09:57:53;;;;;;;3.40;2.03;;;;;;;13.05;40.86;100361.44;4292124;33;35018;-76
2022/12/28 10:00:24;;;;;;;0.50;0.50;;;;;;;13.93;33.84;100362.69;4292206;33;34328;-75
2022/12/28 10:03:00;;;;;;;3.83;3.33;;;;;;;11.93;37.47;100353.88;4292569;33;33405;-76
2022/12/28 10:05:28;;;;;;;0.52;0.52;;;;;;;12.59;36.69;100345.06;4305206;33;33979;-73
2022/12/28 10:07:58;;;;;;;0.95;0.80;;;;;;;12.11;36.43;100345.16;4292165;33;35083;-75
2022/12/28 10:10:26;;;;;;;5.05;1.95;;;;;;;12.93;36.30;100347.56;4292063;33;34423;-76
2022/12/28 10:12:54;;;;;;;3.40;0.82;;;;;;;14.34;35.17;100348.34;4292328;33;33465;-76
2022/12/28 10:15:26;;;;;;;7.43;1.50;;;;;;;15.19;31.94;100334.25;4305055;33;33974;-74
2022/12/28 10:17:54;;;;;;;0.60;0.60;;;;;;;15.03;33.96;100328.34;4304956;33;35414;-75
2022/12/28 10:20:23;;;;;;;0.93;0.85;;;;;;;14.88;31.77;100325.03;4305014;33;35260;-75
2022/12/28 10:22:55;;;;;;;0.70;0.70;;;;;;;14.79;32.66;100330.41;4304998;33;33424;-77
2022/12/28 10:25:26;;;;;;;2.97;1.25;;;;;;;14.88;32.76;100329.44;4305013;33;33873;-77
2022/12/28 10:27:54;;;;;;;0.70;0.62;;;;;;;15.51;31.16;100325.91;4292137;33;34358;-78
2022/12/28 10:30:28;;;;;;;3.42;1.48;;;;;;;15.67;30.74;100327.44;4301358;33;34306;-77
2022/12/28 10:32:58;;;;;;;1.85;1.55;;;;;;;16.04;30.35;100328.59;4304635;33;34332;-78
2022/12/28 10:35:39;;;;;;;1.65;1.45;;;;;;;14.58;33.71;100332.37;4303829;33;33901;-74
2022/12/28 10:38:26;;;;;;;0.57;0.57;;;;;;;13.75;32.85;100338.37;4274570;33;34708;-72
2022/12/28 10:41:01;;;;;;;0.70;0.70;;;;;;;11.80;36.59;100331.19;4285433;33;34457;-74
2022/12/28 10:43:33;;;;;;;1.08;0.95;;;;;;;10.62;39.18;100330.03;4299638;33;34260;-74
2022/12/28 10:46:03;;;;;;;0.60;0.60;;;;;;;9.95;40.79;100339.09;4298168;33;32547;-73
2022/12/28 10:48:34;;;;;;;2.70;2.35;;;;;;;9.10;41.72;100327.03;4304233;33;36188;-77
2022/12/28 10:51:10;;;;;;;3.17;2.78;;;;;;;8.03;45.66;100332.53;4292363;33;33502;-77
2022/12/28 10:53:38;;;;;;;3.83;1.95;;;;;;;8.05;45.88;100336.00;4292200;33;32048;-72
2022/12/28 10:56:10;;;;;;;0.70;0.70;;;;;;;7.77;47.20;100332.97;4305289;33;33855;-77
2022/12/28 10:58:39;;;;;;;0.40;0.40;;;;;;;7.55;47.94;100334.34;4305564;33;34999;-71
2022/12/28 11:01:11;;;;;;;1.12;1.12;;;;;;;8.22;46.32;100333.66;4304724;33;34343;-76
2022/12/28 11:03:44;;;;;;;0.60;0.60;;;;;;;8.67;46.61;100331.72;4304895;33;33760;-78
2022/12/28 11:06:20;;;;;;;1.45;0.75;;;;;;;8.66;46.29;100336.03;4304698;33;33936;-70
2022/12/28 11:09:02;;;;;;;1.37;1.15;;;;;;;8.41;46.28;100334.81;4292504;33;34901;-76
2022/12/28 11:11:31;;;;;;;2.40;1.75;;;;;;;8.12;47.69;100337.84;4291284;33;33322;-70
2022/12/28 11:14:05;;;;;;;1.67;1.58;;;;;;;8.27;47.09;100328.53;4291839;33;34345;-69
2022/12/28 11:16:36;;;;;;;1.05;1.02;;;;;;;8.25;47.48;100319.88;4291480;33;34805;-69
2022/12/28 11:19:04;;;;;;;1.20;1.20;;;;;;;8.14;49.00;100311.94;4304447;33;35305;-69
2022/12/28 11:21:34;;;;;;;1.77;1.67;;;;;;;9.03;46.34;100307.91;4302932;33;35224;-68
2022/12/28 11:24:03;;;;;;;1.40;1.15;;;;;;;10.03;43.27;100314.03;4304406;33;34331;-69
2022/12/28 11:26:32;;;;;;;1.17;1.10;;;;;;;10.18;45.17;100299.38;4304192;33;34790;-69
2022/12/28 11:29:00;;;;;;;0.85;0.85;;;;;;;11.83;41.35;100305.13;4291141;33;35897;-69
2022/12/28 11:31:44;;;;;;;1.87;1.48;;;;;;;13.60;36.58;100307.09;4291083;33;34332;-69
2022/12/28 11:34:17;;;;;;;0.60;0.60;;;;;;;13.92;35.52;100293.72;4291255;33;33437;-69
2022/12/28 11:36:46;;;;;;;2.15;1.87;;;;;;;13.26;35.59;100283.75;4303069;33;33997;-69
2022/12/28 11:39:26;;;;;;;0.82;0.80;;;;;;;14.06;35.07;100274.41;4304402;33;35931;-70
2022/12/28 11:41:56;;;;;;;0.60;0.60;;;;;;;14.34;33.97;100274.97;4304098;33;34323;-69
2022/12/28 11:44:44;;;;;;;1.50;1.40;;;;;;;13.92;34.62;100277.16;4292838;33;34249;-69
2022/12/28 11:47:15;;;;;;;0.50;0.50;;;;;;;12.98;35.89;100272.59;4315885;33;34090;-69
2022/12/28 11:49:46;;;;;;;0.50;0.50;;;;;;;13.30;34.97;100277.59;4318637;33;36157;-70
2022/12/28 11:52:29;;;;;;;1.65;1.17;;;;;;;13.32;36.67;100265.41;4317141;33;34173;-70
2022/12/28 11:54:59;;;;;;;1.08;0.82;;;;;;;13.52;36.12;100261.78;4318436;33;34543;-76
2022/12/28 11:57:37;;;;;;;1.87;1.02;;;;;;;13.76;35.53;100256.34;4305100;33;33949;-70
2022/12/28 12:00:19;;;;;;;0.73;0.73;;;;;;;13.74;35.67;100241.53;4317487;33;35774;-70
2022/12/28 12:02:55;;;;;;;0.65;0.65;;;;;;;14.13;35.28;100239.41;4318453;33;34523;-69
2022/12/28 12:05:38;;;;;;;0.73;0.73;;;;;;;14.38;34.24;100239.97;4318121;33;33431;-69
2022/12/28 12:08:30;;;;;;;0.40;0.40;;;;;;;13.53;36.39;100235.59;4318414;33;34449;-69
2022/12/28 12:11:19;;;;;;;1.55;0.93;;;;;;;14.13;34.11;100232.41;4311380;33;35974;-69
2022/12/28 12:13:50;;;;;;;0.50;0.50;;;;;;;13.95;34.82;100230.84;4318196;33;35265;-69
2022/12/28 12:16:22;;;;;;;2.35;0.85;;;;;;;13.78;35.39;100217.94;4305077;33;34313;-72
2022/12/28 12:18:56;;;;;;;2.45;1.80;;;;;;;12.35;38.05;100221.47;4305273;33;34901;-69